Federal, California
Current Conditions -  °F | °C
As of 4:53 PM on Tuesday 21 Oct 2014 (Local Time) from KFUL Reporting Station
Clear Clear  
Wind Chill: 77°   Ceiling: Unl
Heat Index: 79°   Visibility: 10mi
Dew Point: 57°   Wind: 7mph
Humidity: 50%   Direction: 280°W
Pressure: 29.82"   Gusts: NA
Location:  33.8293°N, 117.905°W
Report Text: KFUL 212353Z 28006KT 10SM CLR 25/14 A2982 RMK AO2 SLP098 T02500139 10272 20206 56006
Loading
Personal Weather Stations






























Interactive Weather Map
Tropical Storm Tracking
New forecast layout! Learn more

10-Day Weather Forecast

Advertisements
Track Severe Weather on mobile